Time;durP1;ratioP1;P1;durP2;ratioP2;P2;SDS_P1;SDS_P2;PMS_P1;PMS_P2;Temp;Humidity;BMP_temperature;BMP_pressure;BME280_temperature;BME280_humidity;BME280_pressure;Samples;Min_cycle;Max_cycle;Signal;HPM_P1;HPM_P2
2023/05/08 00:02:22;;;;;;;15.33;14.33;;;18.10;66.10;;;;;;20458;6807;310625;-74
2023/05/08 00:04:57;;;;;;;15.35;14.35;;;18.40;65.60;;;;;;20650;6736;335141;-72
2023/05/08 00:07:33;;;;;;;15.20;14.30;;;18.80;64.30;;;;;;20620;6751;277090;-73
2023/05/08 00:10:09;;;;;;;12.07;11.17;;;19.10;63.30;;;;;;20809;6751;117938;-72
2023/05/08 00:12:44;;;;;;;14.00;13.20;;;19.00;63.70;;;;;;20493;6759;278911;-72
2023/05/08 00:15:20;;;;;;;13.87;12.97;;;19.10;63.10;;;;;;20641;6752;276355;-71
2023/05/08 00:17:55;;;;;;;13.95;13.05;;;19.30;62.50;;;;;;20530;6770;306371;-72
2023/05/08 00:20:33;;;;;;;14.77;13.80;;;19.50;61.90;;;;;;20484;6770;286491;-72
2023/05/08 00:23:07;;;;;;;14.67;13.77;;;19.60;61.10;;;;;;20548;6769;278669;-71
2023/05/08 00:25:42;;;;;;;12.87;12.07;;;19.70;60.50;;;;;;20597;6750;276951;-72
2023/05/08 00:28:18;;;;;;;12.90;12.20;;;19.70;60.30;;;;;;20610;6754;306002;-72
2023/05/08 00:30:53;;;;;;;11.85;11.23;;;19.70;60.40;;;;;;20523;6750;342720;-73
2023/05/08 00:33:29;;;;;;;11.80;11.10;;;19.70;60.30;;;;;;20643;6750;278178;-72
2023/05/08 00:36:05;;;;;;;12.82;11.90;;;19.70;60.20;;;;;;20588;6765;308148;-72
2023/05/08 00:38:41;;;;;;;10.90;10.10;;;19.30;60.90;;;;;;20731;6780;123477;-72
2023/05/08 00:41:17;;;;;;;12.40;11.70;;;19.20;60.80;;;;;;20523;6765;278956;-72
2023/05/08 00:44:13;;;;;;;11.13;10.43;;;19.20;61.70;;;;;;20871;6751;117794;-72
2023/05/08 00:46:48;;;;;;;11.10;10.50;;;18.80;62.40;;;;;;20781;6765;117331;-72
2023/05/08 00:49:24;;;;;;;11.03;10.40;;;18.30;63.90;;;;;;20798;6765;117630;-72
2023/05/08 00:52:02;;;;;;;11.00;10.40;;;18.00;65.30;;;;;;20469;6763;308849;-71
2023/05/08 00:54:35;;;;;;;11.83;11.13;;;18.20;66.00;;;;;;20589;6775;297597;-72
2023/05/08 00:57:10;;;;;;;9.77;9.17;;;18.50;65.20;;;;;;20866;6744;117798;-71
2023/05/08 00:59:46;;;;;;;10.83;10.17;;;18.40;65.10;;;;;;20650;6746;306741;-72
2023/05/08 01:02:25;;;;;;;11.93;11.23;;;18.40;65.10;;;;;;20413;6837;309904;-71
2023/05/08 01:04:57;;;;;;;10.87;9.70;;;18.70;64.50;;;;;;20853;6743;117098;-72
2023/05/08 01:07:33;;;;;;;46.27;10.33;;;18.50;64.60;;;;;;20830;6758;118523;-72
2023/05/08 01:10:08;;;;;;;62.40;11.47;;;18.10;65.60;;;;;;20874;6736;117215;-71
2023/05/08 01:13:00;;;;;;;13.18;12.37;;;17.80;66.60;;;;;;20627;6759;339306;-72
2023/05/08 01:15:46;;;;;;;50.95;14.27;;;18.00;67.50;;;;;;20642;6751;306067;-72
2023/05/08 01:18:22;;;;;;;14.53;13.53;;;18.40;66.60;;;;;;20664;6742;280633;-72
2023/05/08 01:21:11;;;;;;;14.50;13.48;;;18.80;64.50;;;;;;20537;6757;337630;-72
2023/05/08 01:24:03;;;;;;;11.47;10.77;;;18.80;63.80;;;;;;20819;6758;117667;-72
2023/05/08 01:27:15;;;;;;;11.87;10.97;;;18.50;64.70;;;;;;20863;6744;118235;-72
2023/05/08 01:30:11;;;;;;;13.45;12.65;;;18.10;66.10;;;;;;20648;6755;335309;-72
2023/05/08 01:32:46;;;;;;;11.83;10.93;;;18.20;65.70;;;;;;20748;6769;117472;-72
2023/05/08 01:35:22;;;;;;;13.38;12.57;;;18.20;66.00;;;;;;20579;6774;301680;-72
2023/05/08 01:38:18;;;;;;;11.93;11.13;;;18.10;65.90;;;;;;20841;6753;117261;-72
2023/05/08 01:41:17;;;;;;;13.37;12.37;;;18.10;66.30;;;;;;20723;6763;123774;-72
2023/05/08 01:44:02;;;;;;;16.33;15.23;;;17.80;67.10;;;;;;20523;6824;337400;-72
2023/05/08 01:46:38;;;;;;;14.07;13.20;;;18.00;67.00;;;;;;20610;6751;306922;-72
2023/05/08 01:49:26;;;;;;;14.33;13.33;;;18.40;66.00;;;;;;20939;6722;117721;-73
2023/05/08 01:52:02;;;;;;;11.87;11.03;;;18.30;66.20;;;;;;20667;6758;117947;-72
2023/05/08 01:54:47;;;;;;;13.90;13.00;;;18.00;67.10;;;;;;20575;6759;278181;-73
2023/05/08 01:57:23;;;;;;;12.50;11.80;;;18.10;66.70;;;;;;20683;6733;335277;-73
2023/05/08 01:59:58;;;;;;;11.80;10.97;;;18.50;65.90;;;;;;20920;6733;117690;-73
2023/05/08 02:02:34;;;;;;;11.13;10.13;;;18.40;65.70;;;;;;20887;6732;117649;-73
2023/05/08 02:05:10;;;;;;;12.43;11.37;;;18.10;66.60;;;;;;20823;6765;117607;-73
2023/05/08 02:07:45;;;;;;;12.20;11.40;;;17.80;67.30;;;;;;20753;6780;121403;-73
2023/05/08 02:10:21;;;;;;;14.27;13.25;;;17.60;68.00;;;;;;20516;6764;309912;-73
2023/05/08 02:12:57;;;;;;;15.60;14.40;;;18.20;65.00;;;;;;20686;6724;311022;-73
2023/05/08 02:15:35;;;;;;;15.87;14.77;;;18.20;65.10;;;;;;20617;6761;294002;-72
2023/05/08 02:18:08;;;;;;;12.93;12.03;;;18.50;64.10;;;;;;20834;6758;117405;-73
2023/05/08 02:20:44;;;;;;;12.50;11.60;;;18.30;64.60;;;;;;20776;6752;118189;-72
2023/05/08 02:23:19;;;;;;;12.87;11.97;;;18.00;65.80;;;;;;20864;6741;117276;-73
2023/05/08 02:25:55;;;;;;;13.17;11.97;;;17.70;66.90;;;;;;20888;6741;117179;-73
2023/05/08 02:28:31;;;;;;;15.27;14.07;;;17.50;67.70;;;;;;20654;6741;276483;-73
2023/05/08 02:31:06;;;;;;;14.57;13.20;;;17.80;66.80;;;;;;20791;6741;117999;-70
2023/05/08 02:33:42;;;;;;;18.40;17.00;;;17.80;66.70;;;;;;20553;6778;304294;-72
2023/05/08 02:36:17;;;;;;;15.07;13.47;;;18.00;65.70;;;;;;20826;6761;117299;-72
2023/05/08 02:38:53;;;;;;;15.73;14.63;;;18.10;66.20;;;;;;20578;6761;310997;-72
2023/05/08 02:41:29;;;;;;;14.23;12.87;;;18.10;66.20;;;;;;20745;6761;118033;-72
2023/05/08 02:44:05;;;;;;;13.50;12.50;;;18.10;66.40;;;;;;20808;6761;117750;-72
2023/05/08 02:47:04;;;;;;;14.47;13.23;;;17.80;67.00;;;;;;20837;6761;127020;-72
2023/05/08 02:49:41;;;;;;;19.20;17.57;;;17.70;67.90;;;;;;20651;6756;281923;-72
2023/05/08 02:52:27;;;;;;;19.40;17.87;;;17.90;66.70;;;;;;20572;6725;311610;-72
2023/05/08 02:55:03;;;;;;;14.90;13.70;;;18.10;65.60;;;;;;20915;6727;117615;-72
2023/05/08 02:57:42;;;;;;;15.13;13.77;;;18.10;65.40;;;;;;20879;6740;117465;-72
2023/05/08 03:00:24;;;;;;;15.10;13.70;;;17.80;66.40;;;;;;20841;6727;117392;-72
2023/05/08 03:03:04;;;;;;;14.50;13.40;;;17.40;68.20;;;;;;20802;6762;117497;-72
2023/05/08 03:05:39;;;;;;;14.37;13.17;;;17.40;68.20;;;;;;20901;6736;118416;-72
2023/05/08 03:08:15;;;;;;;13.50;12.40;;;17.20;69.40;;;;;;20867;6731;117720;-72
2023/05/08 03:10:51;;;;;;;14.07;12.93;;;17.20;69.30;;;;;;20785;6746;122160;-72
2023/05/08 03:13:27;;;;;;;13.57;12.63;;;17.10;69.70;;;;;;20899;6728;119936;-73
2023/05/08 03:16:02;;;;;;;13.60;12.50;;;17.00;70.10;;;;;;20909;6728;117270;-72
2023/05/08 03:18:41;;;;;;;15.90;14.85;;;17.00;70.60;;;;;;20640;6748;306207;-73
2023/05/08 03:21:17;;;;;;;14.60;13.50;;;17.40;69.10;;;;;;20789;6724;117528;-73
2023/05/08 03:23:54;;;;;;;17.60;16.25;;;17.50;68.50;;;;;;20612;6758;276385;-75
2023/05/08 03:26:29;;;;;;;15.75;14.63;;;17.70;66.70;;;;;;20653;6737;308207;-76
2023/05/08 03:29:06;;;;;;;14.70;13.60;;;18.40;64.40;;;;;;20654;6739;307305;-75
2023/05/08 03:31:41;;;;;;;12.63;11.83;;;18.40;64.40;;;;;;20545;6739;308070;-75
2023/05/08 03:34:17;;;;;;;13.37;12.47;;;18.50;63.20;;;;;;20647;6759;287185;-75
2023/05/08 03:36:54;;;;;;;13.77;12.73;;;18.70;62.40;;;;;;20611;6760;305428;-75
2023/05/08 03:39:30;;;;;;;11.97;11.07;;;18.80;61.70;;;;;;20816;6772;117449;-75
2023/05/08 03:42:05;;;;;;;11.95;11.15;;;18.50;62.40;;;;;;20410;6783;338998;-75
2023/05/08 03:44:41;;;;;;;11.17;10.47;;;18.50;62.30;;;;;;20719;6786;120082;-75
2023/05/08 03:47:16;;;;;;;10.83;10.20;;;18.20;63.10;;;;;;20880;6743;120439;-75
2023/05/08 03:49:54;;;;;;;9.83;9.23;;;17.90;64.40;;;;;;20794;6754;117904;-75
2023/05/08 03:52:29;;;;;;;12.50;11.70;;;17.60;65.50;;;;;;20630;6759;307930;-75
2023/05/08 03:55:05;;;;;;;11.00;10.30;;;17.80;64.40;;;;;;20816;6766;121338;-75
2023/05/08 03:57:57;;;;;;;9.53;8.87;;;17.80;64.60;;;;;;20868;6744;117164;-75
2023/05/08 04:00:46;;;;;;;10.60;9.80;;;17.30;66.40;;;;;;20583;6820;119854;-75
2023/05/08 04:03:29;;;;;;;9.40;8.70;;;17.10;67.20;;;;;;20871;6745;117164;-75
2023/05/08 04:06:29;;;;;;;10.73;9.93;;;17.10;67.10;;;;;;20634;6786;116735;-76
2023/05/08 04:09:17;;;;;;;14.43;13.43;;;17.00;67.70;;;;;;20606;6764;306452;-75
2023/05/08 04:12:19;;;;;;;12.10;11.30;;;17.30;66.60;;;;;;20727;6749;117960;-75
2023/05/08 04:14:56;;;;;;;11.10;10.30;;;17.20;67.70;;;;;;20886;6744;117683;-75
2023/05/08 04:17:41;;;;;;;14.90;13.97;;;17.10;67.60;;;;;;20669;6741;305148;-75
2023/05/08 04:20:19;;;;;;;13.87;12.77;;;17.40;67.30;;;;;;20795;6737;120280;-75
2023/05/08 04:22:52;;;;;;;13.97;12.97;;;17.40;67.30;;;;;;20872;6737;121046;-75
2023/05/08 04:25:29;;;;;;;15.53;14.33;;;17.30;68.00;;;;;;20912;6737;117065;-75
2023/05/08 04:28:04;;;;;;;19.87;18.17;;;17.20;68.70;;;;;;20686;6737;291134;-78
2023/05/08 04:30:40;;;;;;;20.93;19.07;;;17.50;67.40;;;;;;20566;6752;307775;-73
2023/05/08 04:33:17;;;;;;;20.30;18.80;;;17.90;65.90;;;;;;20513;6776;330280;-73
2023/05/08 04:35:52;;;;;;;21.07;19.17;;;18.50;63.80;;;;;;20702;6746;310218;-73
2023/05/08 04:38:28;;;;;;;20.90;19.20;;;18.50;63.80;;;;;;20637;6761;277391;-76
2023/05/08 04:41:03;;;;;;;19.13;17.57;;;18.60;63.30;;;;;;20812;6741;117851;-73
2023/05/08 04:43:39;;;;;;;17.83;16.37;;;18.40;64.00;;;;;;20955;6717;117586;-72
2023/05/08 04:46:14;;;;;;;17.77;16.10;;;18.10;65.40;;;;;;20927;6722;117746;-76
2023/05/08 04:48:50;;;;;;;15.83;14.53;;;17.80;66.60;;;;;;20799;6752;118024;-73
2023/05/08 04:51:26;;;;;;;17.10;15.80;;;17.60;67.50;;;;;;20546;6745;279148;-73
2023/05/08 04:54:02;;;;;;;25.80;23.60;;;18.30;65.40;;;;;;20776;6714;305016;-73
2023/05/08 04:56:38;;;;;;;33.20;30.20;;;18.30;65.40;;;;;;20535;6760;308308;-74
2023/05/08 04:59:13;;;;;;;20.27;18.57;;;18.60;64.00;;;;;;20935;6717;117570;-74
2023/05/08 05:01:49;;;;;;;14.60;13.33;;;18.50;64.30;;;;;;20694;6755;117873;-74
2023/05/08 05:04:25;;;;;;;16.77;15.47;;;18.30;65.30;;;;;;20622;6752;310711;-76
2023/05/08 05:07:01;;;;;;;17.00;15.60;;;18.30;65.20;;;;;;20806;6755;119915;-73
2023/05/08 05:09:37;;;;;;;14.97;13.67;;;18.20;65.50;;;;;;20784;6766;123467;-75
2023/05/08 05:12:13;;;;;;;16.03;14.93;;;18.20;66.30;;;;;;20474;6752;313540;-74
2023/05/08 05:14:48;;;;;;;16.80;15.40;;;18.20;66.30;;;;;;20822;6750;117250;-72
2023/05/08 05:17:24;;;;;;;16.43;15.13;;;18.20;66.40;;;;;;20826;6755;117903;-74
2023/05/08 05:19:59;;;;;;;21.17;19.57;;;18.00;66.90;;;;;;20660;6742;275891;-74
2023/05/08 05:22:35;;;;;;;17.93;16.43;;;18.20;65.40;;;;;;20833;6748;121790;-73
2023/05/08 05:25:11;;;;;;;16.80;15.40;;;18.20;65.60;;;;;;20819;6747;117693;-73
2023/05/08 05:27:46;;;;;;;15.40;14.10;;;18.00;66.50;;;;;;20844;6750;121136;-73
2023/05/08 05:30:24;;;;;;;19.47;17.97;;;18.10;66.10;;;;;;20488;6784;305499;-74
2023/05/08 05:32:59;;;;;;;20.23;18.83;;;18.10;66.10;;;;;;20469;6798;337600;-73
2023/05/08 05:35:35;;;;;;;16.63;15.33;;;18.50;64.50;;;;;;20810;6772;119979;-73
2023/05/08 05:38:11;;;;;;;19.10;17.50;;;18.50;64.60;;;;;;20853;6772;117663;-73
2023/05/08 05:40:48;;;;;;;20.70;19.17;;;18.30;65.70;;;;;;20471;6765;283700;-73
2023/05/08 05:43:23;;;;;;;21.33;19.70;;;18.40;64.50;;;;;;20584;6770;277724;-74
2023/05/08 05:46:02;;;;;;;18.87;17.37;;;18.70;63.00;;;;;;20791;6766;117403;-73
2023/05/08 05:48:38;;;;;;;22.90;21.10;;;18.60;63.40;;;;;;20564;6761;306821;-73
2023/05/08 05:51:14;;;;;;;19.60;17.97;;;18.60;63.40;;;;;;20779;6742;120669;-76
2023/05/08 05:53:49;;;;;;;19.57;18.03;;;18.50;63.40;;;;;;20884;6742;119831;-75
2023/05/08 05:56:25;;;;;;;19.40;17.70;;;18.30;64.30;;;;;;20858;6747;120345;-75
2023/05/08 05:59:01;;;;;;;19.40;17.83;;;18.10;65.30;;;;;;20865;6740;117184;-75
2023/05/08 06:01:37;;;;;;;23.15;21.35;;;17.90;66.00;;;;;;20531;6737;313870;-75
2023/05/08 06:04:13;;;;;;;25.70;23.80;;;18.20;65.40;;;;;;20618;6744;306121;-75
2023/05/08 06:06:49;;;;;;;21.23;19.63;;;18.50;64.10;;;;;;20806;6757;121004;-76
2023/05/08 06:09:24;;;;;;;22.95;21.35;;;18.50;64.30;;;;;;20598;6760;306480;-76
2023/05/08 06:12:01;;;;;;;23.10;21.10;;;18.60;63.90;;;;;;20654;6766;117873;-78
2023/05/08 06:14:36;;;;;;;21.87;19.90;;;18.60;64.20;;;;;;20853;6739;127153;-75
2023/05/08 06:17:12;;;;;;;22.13;20.27;;;18.40;64.90;;;;;;20884;6739;117551;-72
2023/05/08 06:19:52;;;;;;;27.30;25.10;;;18.10;65.40;;;;;;20716;6724;343365;-76
2023/05/08 06:22:28;;;;;;;22.83;20.83;;;18.40;64.60;;;;;;20723;6791;117548;-74
2023/05/08 06:25:05;;;;;;;21.20;19.40;;;18.30;64.70;;;;;;20956;6724;117687;-72
2023/05/08 06:27:37;;;;;;;24.00;22.10;;;18.10;65.50;;;;;;20716;6726;333929;-72
2023/05/08 06:30:13;;;;;;;23.03;20.90;;;18.40;65.00;;;;;;20936;6720;117050;-73
2023/05/08 06:32:49;;;;;;;26.02;23.83;;;18.40;65.10;;;;;;20650;6738;335472;-73
2023/05/08 06:35:25;;;;;;;24.60;22.57;;;18.60;63.30;;;;;;20701;6731;305256;-73
2023/05/08 06:38:02;;;;;;;24.23;22.42;;;18.90;62.60;;;;;;20706;6730;335020;-73
2023/05/08 06:40:37;;;;;;;21.43;19.50;;;19.10;62.20;;;;;;20845;6731;148352;-72
2023/05/08 06:43:13;;;;;;;19.73;18.13;;;18.90;62.70;;;;;;20938;6723;117507;-73
2023/05/08 06:45:51;;;;;;;25.23;23.13;;;18.60;63.70;;;;;;20682;6739;309787;-75
2023/05/08 06:48:27;;;;;;;24.95;23.02;;;18.70;63.10;;;;;;20723;6723;305505;-73
2023/05/08 06:51:00;;;;;;;21.37;19.30;;;19.00;62.00;;;;;;20818;6739;118130;-73
2023/05/08 06:53:36;;;;;;;23.03;21.03;;;18.90;61.80;;;;;;20624;6753;276442;-73
2023/05/08 06:56:12;;;;;;;22.83;20.92;;;18.80;61.90;;;;;;20655;6744;335861;-73
2023/05/08 06:58:49;;;;;;;22.97;21.17;;;19.00;61.20;;;;;;20525;6777;440121;-74
2023/05/08 07:01:24;;;;;;;22.43;20.70;;;19.30;61.20;;;;;;20542;6747;281682;-72
2023/05/08 07:04:01;;;;;;;22.08;20.42;;;19.50;60.80;;;;;;20711;6738;312101;-72
2023/05/08 07:06:36;;;;;;;23.00;21.05;;;19.50;60.80;;;;;;20584;6764;315479;-76
2023/05/08 07:09:12;;;;;;;24.83;22.30;;;19.70;60.40;;;;;;20914;6731;117565;-76
2023/05/08 07:11:48;;;;;;;24.15;22.10;;;19.50;61.00;;;;;;20524;6746;278100;-73
2023/05/08 07:14:27;;;;;;;24.50;22.53;;;19.40;60.90;;;;;;20677;6735;306073;-72
2023/05/08 07:17:05;;;;;;;23.63;21.53;;;19.30;61.50;;;;;;20911;6731;117281;-74
2023/05/08 07:19:38;;;;;;;23.50;21.50;;;19.30;61.00;;;;;;20669;6741;274715;-73
2023/05/08 07:22:14;;;;;;;26.87;24.08;;;19.30;60.70;;;;;;20472;6746;311587;-74
2023/05/08 07:24:49;;;;;;;22.07;19.87;;;19.50;60.20;;;;;;20868;6740;117628;-73
2023/05/08 07:27:25;;;;;;;24.25;22.25;;;19.30;60.80;;;;;;20707;6731;276180;-71
2023/05/08 07:30:03;;;;;;;23.03;21.23;;;19.20;60.70;;;;;;20661;6741;290794;-72
2023/05/08 07:32:38;;;;;;;21.10;19.17;;;19.40;60.40;;;;;;20942;6716;117535;-73
2023/05/08 07:35:12;;;;;;;23.97;21.97;;;19.10;60.90;;;;;;20760;6715;276164;-70
2023/05/08 07:37:47;;;;;;;23.10;21.20;;;19.10;61.40;;;;;;20646;6745;310472;-73
2023/05/08 07:40:23;;;;;;;21.10;19.60;;;19.30;60.80;;;;;;20709;6716;312670;-71
2023/05/08 07:42:58;;;;;;;20.40;17.30;;;19.40;60.00;;;;;;20906;6731;118372;-71
2023/05/08 07:45:37;;;;;;;18.77;17.30;;;19.10;60.70;;;;;;20951;6716;117633;-72
2023/05/08 07:48:10;;;;;;;18.17;16.70;;;18.70;61.80;;;;;;20951;6716;118374;-71
2023/05/08 07:50:45;;;;;;;22.40;20.70;;;18.40;63.20;;;;;;20609;6731;292373;-74
2023/05/08 07:53:21;;;;;;;19.40;17.80;;;18.50;63.40;;;;;;20910;6727;117723;-74
2023/05/08 07:55:59;;;;;;;18.53;16.93;;;18.40;63.40;;;;;;20919;6727;121401;-71
2023/05/08 07:58:33;;;;;;;23.05;21.20;;;18.10;65.40;;;;;;20675;6727;305878;-72
2023/05/08 08:01:08;;;;;;;23.38;21.55;;;18.10;64.80;;;;;;20587;6739;307616;-72
2023/05/08 08:03:44;;;;;;;20.10;18.40;;;18.40;65.00;;;;;;20911;6731;117753;-71
2023/05/08 08:06:19;;;;;;;21.80;20.10;;;18.20;64.90;;;;;;20709;6726;304052;-71
2023/05/08 08:08:55;;;;;;;18.73;17.07;;;18.20;65.10;;;;;;20846;6745;123739;-71
2023/05/08 08:11:30;;;;;;;18.13;16.57;;;18.00;65.50;;;;;;20769;6746;120244;-72
2023/05/08 08:14:07;;;;;;;21.30;19.52;;;17.90;66.40;;;;;;20656;6741;306537;-71
2023/05/08 08:16:43;;;;;;;18.13;16.63;;;17.90;66.60;;;;;;20827;6746;117378;-71
2023/05/08 08:19:18;;;;;;;20.75;18.95;;;17.80;66.70;;;;;;20647;6746;324732;-71
2023/05/08 08:21:56;;;;;;;20.90;19.30;;;17.90;67.50;;;;;;20499;6746;309229;-71
2023/05/08 08:24:30;;;;;;;17.20;15.73;;;18.20;65.80;;;;;;20821;6746;123047;-71
2023/05/08 08:27:05;;;;;;;16.87;15.37;;;18.00;66.00;;;;;;20855;6746;117819;-70
2023/05/08 08:29:41;;;;;;;18.05;16.75;;;17.60;67.00;;;;;;20596;6762;278480;-70
2023/05/08 08:32:16;;;;;;;16.73;15.27;;;17.70;67.90;;;;;;20789;6716;118068;-69
2023/05/08 08:34:52;;;;;;;21.27;19.27;;;17.70;68.60;;;;;;20641;6739;281521;-70
2023/05/08 08:37:27;;;;;;;16.25;14.93;;;17.80;68.40;;;;;;20681;6724;337813;-71
2023/05/08 08:40:03;;;;;;;21.40;19.70;;;18.10;67.70;;;;;;20713;6717;275776;-69
2023/05/08 08:42:39;;;;;;;14.93;13.83;;;18.30;66.10;;;;;;20655;6742;306527;-69
2023/05/08 08:45:14;;;;;;;11.10;10.20;;;18.40;65.60;;;;;;20867;6748;117120;-69
2023/05/08 08:47:50;;;;;;;9.90;9.30;;;18.20;66.50;;;;;;20592;6768;307584;-68
2023/05/08 08:50:26;;;;;;;10.77;10.07;;;18.20;67.90;;;;;;20555;6768;332539;-68
2023/05/08 08:53:17;;;;;;;8.07;7.47;;;18.40;65.30;;;;;;20863;6730;117444;-69
2023/05/08 08:55:55;;;;;;;12.97;11.97;;;18.20;65.80;;;;;;20459;6802;317415;-70
2023/05/08 08:58:49;;;;;;;11.30;10.57;;;18.20;65.70;;;;;;20876;6731;117707;-70
2023/05/08 09:01:22;;;;;;;11.70;10.83;;;17.70;68.40;;;;;;20778;6731;124002;-71
2023/05/08 09:03:58;;;;;;;12.53;11.53;;;17.60;67.70;;;;;;20902;6731;123167;-70
2023/05/08 09:06:37;;;;;;;13.70;12.57;;;17.40;69.20;;;;;;20846;6735;124397;-71
2023/05/08 09:09:12;;;;;;;13.03;12.03;;;17.30;70.00;;;;;;20901;6733;117816;-70
2023/05/08 09:11:48;;;;;;;13.53;12.40;;;17.20;71.30;;;;;;20754;6733;117749;-71
2023/05/08 09:14:25;;;;;;;65.07;58.10;;;17.20;72.40;;;;;;20868;6737;117715;-71
2023/05/08 09:16:59;;;;;;;74.43;66.65;;;17.20;72.30;;;;;;20652;6732;336060;-71
2023/05/08 09:19:34;;;;;;;16.83;15.53;;;17.50;70.60;;;;;;20580;6754;308312;-71
2023/05/08 09:22:10;;;;;;;14.23;13.03;;;18.00;69.90;;;;;;20733;6739;117558;-71
2023/05/08 09:24:58;;;;;;;13.90;12.95;;;18.10;70.10;;;;;;20592;6748;306652;-71
2023/05/08 09:27:35;;;;;;;12.73;12.02;;;18.40;68.40;;;;;;20709;6727;276624;-72
2023/05/08 09:30:10;;;;;;;14.53;13.53;;;18.80;66.70;;;;;;20589;6760;277231;-71
2023/05/08 09:32:45;;;;;;;13.45;12.55;;;19.20;66.00;;;;;;20680;6727;278767;-70
2023/05/08 09:35:21;;;;;;;11.50;10.73;;;19.40;64.00;;;;;;20864;6742;120045;-71
2023/05/08 09:38:01;;;;;;;12.48;11.68;;;19.40;64.70;;;;;;20637;6798;276577;-72
2023/05/08 09:40:41;;;;;;;11.75;11.05;;;19.80;63.40;;;;;;20580;6742;278668;-71
2023/05/08 09:43:13;;;;;;;11.83;11.07;;;19.80;62.80;;;;;;20702;6722;310535;-71
2023/05/08 09:45:49;;;;;;;12.03;11.30;;;20.00;61.10;;;;;;20689;6727;276646;-72
2023/05/08 09:48:35;;;;;;;13.10;12.10;;;20.20;61.20;;;;;;20678;6727;304684;-71
2023/05/08 09:51:11;;;;;;;11.07;10.37;;;20.20;61.20;;;;;;20648;6712;277603;-71
2023/05/08 09:53:46;;;;;;;11.20;10.30;;;20.30;61.10;;;;;;20734;6712;277654;-71
2023/05/08 09:56:32;;;;;;;9.60;9.00;;;20.30;59.70;;;;;;20948;6712;120610;-71
2023/05/08 09:59:27;;;;;;;8.98;8.38;;;20.10;60.90;;;;;;20712;6711;313608;-70
2023/05/08 10:02:03;;;;;;;9.73;9.13;;;20.10;61.70;;;;;;20504;6726;307548;-71
2023/05/08 10:04:42;;;;;;;7.45;7.05;;;20.20;60.00;;;;;;20700;6712;303709;-71
2023/05/08 10:07:15;;;;;;;6.60;6.30;;;20.30;58.70;;;;;;20722;6712;304176;-72
2023/05/08 10:10:00;;;;;;;7.50;7.10;;;20.40;57.70;;;;;;20884;6731;120306;-73
2023/05/08 10:12:36;;;;;;;9.88;9.27;;;20.10;58.90;;;;;;20609;6750;290590;-72
2023/05/08 10:15:14;;;;;;;9.80;9.30;;;20.10;59.20;;;;;;20669;6737;294339;-72
2023/05/08 10:17:47;;;;;;;9.03;8.43;;;20.30;59.80;;;;;;20845;6748;117468;-73
2023/05/08 10:20:23;;;;;;;9.95;9.35;;;20.30;60.40;;;;;;20466;6810;284745;-73
2023/05/08 10:22:59;;;;;;;10.38;9.73;;;20.30;60.40;;;;;;20656;6731;306243;-74
2023/05/08 10:25:35;;;;;;;10.40;9.80;;;20.60;60.20;;;;;;20640;6741;278251;-73
2023/05/08 10:28:20;;;;;;;10.68;9.90;;;20.80;59.30;;;;;;20663;6730;305621;-75
2023/05/08 10:30:56;;;;;;;9.50;8.87;;;20.60;59.20;;;;;;20813;6730;123043;-78
2023/05/08 10:33:32;;;;;;;10.30;9.70;;;20.60;59.20;;;;;;20758;6712;283698;-77
2023/05/08 10:36:09;;;;;;;8.87;8.27;;;20.60;60.00;;;;;;20966;6713;117064;-77
2023/05/08 10:38:47;;;;;;;8.63;8.13;;;20.50;60.80;;;;;;20923;6716;117493;-77
2023/05/08 10:41:22;;;;;;;9.80;9.20;;;20.30;61.10;;;;;;20549;6732;278648;-75
2023/05/08 10:43:56;;;;;;;9.20;8.60;;;20.20;61.00;;;;;;20777;6701;276114;-75
2023/05/08 10:46:42;;;;;;;9.20;8.70;;;20.50;60.30;;;;;;20712;6716;305136;-76
2023/05/08 10:49:22;;;;;;;9.63;9.03;;;20.80;59.70;;;;;;20942;6716;116701;-76
2023/05/08 10:52:17;;;;;;;10.77;10.10;;;20.70;60.30;;;;;;20580;6716;311065;-77
2023/05/08 10:54:53;;;;;;;9.27;8.67;;;20.70;60.20;;;;;;20855;6731;117364;-78
2023/05/08 10:57:28;;;;;;;9.47;8.83;;;20.50;60.90;;;;;;20800;6756;123112;-78
2023/05/08 11:00:05;;;;;;;9.43;8.83;;;20.00;62.70;;;;;;20831;6748;116804;-79
2023/05/08 11:02:41;;;;;;;10.50;9.80;;;20.00;62.70;;;;;;20644;6738;306033;-76
2023/05/08 11:05:16;;;;;;;9.10;8.50;;;20.20;62.90;;;;;;20851;6746;117013;-75
2023/05/08 11:07:52;;;;;;;10.30;9.63;;;20.20;63.10;;;;;;20662;6735;303765;-75
2023/05/08 11:10:29;;;;;;;9.23;8.73;;;20.60;61.00;;;;;;20590;6741;313116;-79
2023/05/08 11:13:04;;;;;;;8.10;7.60;;;20.60;61.50;;;;;;20740;6712;276461;-77
2023/05/08 11:15:39;;;;;;;7.80;7.40;;;20.90;60.50;;;;;;20954;6712;121105;-76
2023/05/08 11:18:15;;;;;;;8.90;8.40;;;20.80;60.90;;;;;;20735;6712;298151;-78
2023/05/08 11:20:57;;;;;;;9.47;8.97;;;20.80;61.10;;;;;;20608;6721;278334;-76
2023/05/08 11:23:30;;;;;;;10.30;9.70;;;21.00;60.20;;;;;;20752;6707;276207;-77
2023/05/08 11:26:11;;;;;;;9.10;8.50;;;21.10;58.90;;;;;;20746;6707;305403;-77
2023/05/08 11:28:56;;;;;;;8.60;8.10;;;21.20;58.80;;;;;;20649;6732;330005;-75
2023/05/08 11:31:49;;;;;;;7.80;7.37;;;21.30;58.40;;;;;;20795;6724;117559;-74
2023/05/08 11:34:41;;;;;;;9.95;8.95;;;20.90;59.20;;;;;;20758;6712;333918;-76
2023/05/08 11:37:16;;;;;;;7.23;6.83;;;20.80;60.00;;;;;;20980;6698;117059;-76
2023/05/08 11:39:52;;;;;;;7.93;7.37;;;20.50;60.60;;;;;;20951;6698;122679;-75
2023/05/08 11:42:31;;;;;;;8.67;8.10;;;20.10;61.30;;;;;;20501;6781;307971;-75
2023/05/08 11:45:06;;;;;;;8.90;8.40;;;20.10;61.30;;;;;;20548;6757;335748;-74
2023/05/08 11:47:42;;;;;;;7.70;7.30;;;20.40;61.10;;;;;;20790;6759;117053;-74
2023/05/08 11:50:17;;;;;;;8.60;8.00;;;20.20;61.50;;;;;;20621;6739;282589;-74
2023/05/08 11:52:53;;;;;;;8.33;7.83;;;20.30;61.20;;;;;;20873;6728;116950;-74
2023/05/08 11:55:28;;;;;;;8.87;8.10;;;20.20;61.80;;;;;;20887;6729;116870;-74
2023/05/08 11:58:11;;;;;;;9.30;8.70;;;20.00;62.30;;;;;;20649;6739;277706;-74
2023/05/08 12:00:46;;;;;;;9.00;8.40;;;20.10;61.50;;;;;;20573;6724;312329;-75
2023/05/08 12:03:25;;;;;;;9.75;9.23;;;20.40;61.50;;;;;;20589;6753;337028;-77
2023/05/08 12:05:57;;;;;;;9.03;8.53;;;20.60;60.80;;;;;;20884;6727;116782;-75
2023/05/08 12:08:36;;;;;;;10.47;9.87;;;20.40;61.20;;;;;;20642;6733;292637;-77
2023/05/08 12:11:10;;;;;;;9.53;9.03;;;20.30;61.60;;;;;;20793;6735;119850;-75
2023/05/08 12:13:46;;;;;;;9.70;9.03;;;20.20;61.50;;;;;;20876;6735;117300;-76
2023/05/08 12:16:21;;;;;;;12.73;11.77;;;20.00;62.50;;;;;;20674;6735;276009;-76
2023/05/08 12:19:01;;;;;;;13.00;12.20;;;20.50;61.70;;;;;;20602;6754;323679;-77
2023/05/08 12:21:37;;;;;;;12.20;11.33;;;20.50;61.70;;;;;;20708;6756;117469;-75
2023/05/08 12:24:09;;;;;;;13.90;13.10;;;20.50;61.90;;;;;;20503;6776;308100;-75
2023/05/08 12:26:45;;;;;;;15.15;13.95;;;20.60;60.40;;;;;;20531;6764;306433;-75
2023/05/08 12:29:20;;;;;;;15.60;14.50;;;20.80;60.30;;;;;;20643;6742;311091;-74
2023/05/08 12:31:56;;;;;;;10.47;9.77;;;21.00;60.00;;;;;;20684;6747;118087;-72
2023/05/08 12:34:31;;;;;;;15.23;14.07;;;20.80;60.70;;;;;;20853;6732;117072;-73
2023/05/08 12:37:07;;;;;;;17.73;16.20;;;20.60;61.80;;;;;;20606;6747;306159;-73
2023/05/08 12:39:42;;;;;;;16.30;14.83;;;20.60;60.10;;;;;;20852;6748;117225;-73
2023/05/08 12:42:18;;;;;;;14.73;13.63;;;20.60;60.90;;;;;;20682;6748;117955;-73
2023/05/08 12:44:53;;;;;;;16.80;15.50;;;20.50;61.70;;;;;;20821;6754;123189;-74
2023/05/08 12:47:32;;;;;;;15.83;14.63;;;20.30;61.90;;;;;;20921;6734;117135;-73
2023/05/08 12:50:06;;;;;;;18.12;16.98;;;20.30;61.30;;;;;;20692;6734;334634;-75
2023/05/08 12:56:18;;;;;;;17.77;16.42;;;20.50;62.20;;;;;;20633;6751;276242;-73
2023/05/08 12:58:53;;;;;;;17.83;16.63;;;20.80;60.70;;;;;;20652;6731;282941;-73
2023/05/08 13:01:29;;;;;;;18.80;17.50;;;21.10;58.60;;;;;;20547;6739;342527;-73
2023/05/08 13:04:07;;;;;;;16.70;15.50;;;21.30;58.70;;;;;;20890;6739;117443;-73
2023/05/08 13:06:43;;;;;;;18.67;17.23;;;21.20;59.30;;;;;;20672;6731;306153;-73
2023/05/08 13:09:22;;;;;;;17.40;16.20;;;21.20;59.30;;;;;;20656;6746;280967;-73
2023/05/08 13:11:55;;;;;;;15.57;14.17;;;21.40;59.20;;;;;;20724;6741;118567;-72
2023/05/08 13:14:31;;;;;;;17.37;16.23;;;21.50;57.90;;;;;;20689;6727;276753;-72
2023/05/08 13:17:07;;;;;;;18.40;17.00;;;21.50;57.90;;;;;;20610;6756;341298;-73